sensor_id;sensor_type;location;lat;lon;timestamp;temperature;humidity
20066;DHT22;10193;48.884;9.182;2023-03-31T00:02:12;14.50;65.80
20066;DHT22;10193;48.884;9.182;2023-03-31T00:04:39;14.50;65.80
20066;DHT22;10193;48.884;9.182;2023-03-31T00:07:11;14.50;65.70
20066;DHT22;10193;48.884;9.182;2023-03-31T00:09:38;14.60;65.80
20066;DHT22;10193;48.884;9.182;2023-03-31T00:12:06;14.60;65.70
20066;DHT22;10193;48.884;9.182;2023-03-31T00:14:34;14.60;65.60
20066;DHT22;10193;48.884;9.182;2023-03-31T00:17:01;14.60;65.60
20066;DHT22;10193;48.884;9.182;2023-03-31T00:19:29;14.60;65.50
20066;DHT22;10193;48.884;9.182;2023-03-31T00:21:57;14.60;65.40
20066;DHT22;10193;48.884;9.182;2023-03-31T00:24:27;14.60;65.40
20066;DHT22;10193;48.884;9.182;2023-03-31T00:26:57;14.50;65.10
20066;DHT22;10193;48.884;9.182;2023-03-31T00:29:24;14.50;65.10
20066;DHT22;10193;48.884;9.182;2023-03-31T00:31:52;14.50;65.20
20066;DHT22;10193;48.884;9.182;2023-03-31T00:34:19;14.50;65.30
20066;DHT22;10193;48.884;9.182;2023-03-31T00:36:46;14.50;65.30
20066;DHT22;10193;48.884;9.182;2023-03-31T00:39:14;14.50;65.40
20066;DHT22;10193;48.884;9.182;2023-03-31T00:41:42;14.40;65.30
20066;DHT22;10193;48.884;9.182;2023-03-31T00:44:12;14.40;65.30
20066;DHT22;10193;48.884;9.182;2023-03-31T00:46:45;14.40;65.30
20066;DHT22;10193;48.884;9.182;2023-03-31T00:49:20;14.40;65.10
20066;DHT22;10193;48.884;9.182;2023-03-31T00:51:50;14.40;65.40
20066;DHT22;10193;48.884;9.182;2023-03-31T00:54:18;14.40;65.50
20066;DHT22;10193;48.884;9.182;2023-03-31T00:56:49;14.40;65.50
20066;DHT22;10193;48.884;9.182;2023-03-31T00:59:17;14.40;65.50
20066;DHT22;10193;48.884;9.182;2023-03-31T01:01:45;14.40;65.50
20066;DHT22;10193;48.884;9.182;2023-03-31T01:04:16;14.40;65.50
20066;DHT22;10193;48.884;9.182;2023-03-31T01:06:52;14.40;66.20
20066;DHT22;10193;48.884;9.182;2023-03-31T01:09:22;14.40;65.40
20066;DHT22;10193;48.884;9.182;2023-03-31T01:11:49;14.40;65.60
20066;DHT22;10193;48.884;9.182;2023-03-31T01:14:16;14.40;65.60
20066;DHT22;10193;48.884;9.182;2023-03-31T01:16:42;14.50;65.70
20066;DHT22;10193;48.884;9.182;2023-03-31T01:19:15;14.50;65.70
20066;DHT22;10193;48.884;9.182;2023-03-31T01:22:02;14.40;65.60
20066;DHT22;10193;48.884;9.182;2023-03-31T01:28:01;14.50;64.90
20066;DHT22;10193;48.884;9.182;2023-03-31T01:30:56;14.50;64.80
20066;DHT22;10193;48.884;9.182;2023-03-31T01:33:54;14.60;64.90
20066;DHT22;10193;48.884;9.182;2023-03-31T01:39:51;14.70;65.10
20066;DHT22;10193;48.884;9.182;2023-03-31T01:42:28;14.70;64.60
20066;DHT22;10193;48.884;9.182;2023-03-31T01:45:04;14.80;65.50
20066;DHT22;10193;48.884;9.182;2023-03-31T01:47:36;14.70;65.20
20066;DHT22;10193;48.884;9.182;2023-03-31T01:50:09;14.80;65.30
20066;DHT22;10193;48.884;9.182;2023-03-31T01:52:41;14.80;65.30
20066;DHT22;10193;48.884;9.182;2023-03-31T01:55:12;14.80;65.00
20066;DHT22;10193;48.884;9.182;2023-03-31T01:57:46;14.70;65.00
20066;DHT22;10193;48.884;9.182;2023-03-31T02:00:14;14.80;65.00
20066;DHT22;10193;48.884;9.182;2023-03-31T02:02:45;14.70;65.00
20066;DHT22;10193;48.884;9.182;2023-03-31T02:05:15;14.70;65.00
20066;DHT22;10193;48.884;9.182;2023-03-31T02:07:46;14.70;65.20
20066;DHT22;10193;48.884;9.182;2023-03-31T02:10:17;14.70;65.00
20066;DHT22;10193;48.884;9.182;2023-03-31T02:12:45;14.70;65.00
20066;DHT22;10193;48.884;9.182;2023-03-31T02:15:14;14.70;65.00
20066;DHT22;10193;48.884;9.182;2023-03-31T02:17:44;14.60;64.70
20066;DHT22;10193;48.884;9.182;2023-03-31T02:20:13;14.60;64.80
20066;DHT22;10193;48.884;9.182;2023-03-31T02:22:44;14.60;64.80
20066;DHT22;10193;48.884;9.182;2023-03-31T02:25:13;14.60;64.80
20066;DHT22;10193;48.884;9.182;2023-03-31T02:27:46;14.60;64.80
20066;DHT22;10193;48.884;9.182;2023-03-31T02:30:14;14.50;64.80
20066;DHT22;10193;48.884;9.182;2023-03-31T02:32:42;14.50;64.90
20066;DHT22;10193;48.884;9.182;2023-03-31T02:35:10;14.50;65.00
20066;DHT22;10193;48.884;9.182;2023-03-31T02:37:38;14.40;65.90
20066;DHT22;10193;48.884;9.182;2023-03-31T02:40:08;14.40;65.20
20066;DHT22;10193;48.884;9.182;2023-03-31T02:42:37;14.40;65.30
20066;DHT22;10193;48.884;9.182;2023-03-31T02:45:33;14.40;65.40
20066;DHT22;10193;48.884;9.182;2023-03-31T02:47:54;14.30;65.40
20066;DHT22;10193;48.884;9.182;2023-03-31T02:50:24;14.30;65.50
20066;DHT22;10193;48.884;9.182;2023-03-31T02:52:57;14.20;65.50
20066;DHT22;10193;48.884;9.182;2023-03-31T02:55:42;14.20;65.60
20066;DHT22;10193;48.884;9.182;2023-03-31T02:58:35;14.10;65.60
20066;DHT22;10193;48.884;9.182;2023-03-31T03:01:18;14.10;65.70
20066;DHT22;10193;48.884;9.182;2023-03-31T03:03:57;14.10;66.00
20066;DHT22;10193;48.884;9.182;2023-03-31T03:06:36;14.10;66.00
20066;DHT22;10193;48.884;9.182;2023-03-31T03:09:11;14.10;66.10
20066;DHT22;10193;48.884;9.182;2023-03-31T03:11:46;14.10;66.30
20066;DHT22;10193;48.884;9.182;2023-03-31T03:14:25;14.10;66.30
20066;DHT22;10193;48.884;9.182;2023-03-31T03:16:58;14.10;66.40
20066;DHT22;10193;48.884;9.182;2023-03-31T03:19:25;14.10;66.40
20066;DHT22;10193;48.884;9.182;2023-03-31T03:21:52;14.10;66.50
20066;DHT22;10193;48.884;9.182;2023-03-31T03:24:19;14.10;66.60
20066;DHT22;10193;48.884;9.182;2023-03-31T03:26:47;14.10;66.50
20066;DHT22;10193;48.884;9.182;2023-03-31T03:29:14;14.10;66.50
20066;DHT22;10193;48.884;9.182;2023-03-31T03:31:40;14.10;66.40
20066;DHT22;10193;48.884;9.182;2023-03-31T03:34:09;14.00;66.20
20066;DHT22;10193;48.884;9.182;2023-03-31T03:36:35;14.00;66.10
20066;DHT22;10193;48.884;9.182;2023-03-31T03:39:03;14.00;66.10
20066;DHT22;10193;48.884;9.182;2023-03-31T03:41:29;14.00;66.20
20066;DHT22;10193;48.884;9.182;2023-03-31T03:43:57;13.90;66.10
20066;DHT22;10193;48.884;9.182;2023-03-31T03:46:24;13.90;66.30
20066;DHT22;10193;48.884;9.182;2023-03-31T03:48:51;13.90;66.40
20066;DHT22;10193;48.884;9.182;2023-03-31T03:51:19;13.90;66.50
20066;DHT22;10193;48.884;9.182;2023-03-31T03:53:45;13.80;66.40
20066;DHT22;10193;48.884;9.182;2023-03-31T03:56:12;13.80;66.50
20066;DHT22;10193;48.884;9.182;2023-03-31T03:58:39;13.80;66.60
20066;DHT22;10193;48.884;9.182;2023-03-31T04:01:05;13.80;66.60
20066;DHT22;10193;48.884;9.182;2023-03-31T04:03:32;13.80;66.50
20066;DHT22;10193;48.884;9.182;2023-03-31T04:05:59;13.80;66.60
20066;DHT22;10193;48.884;9.182;2023-03-31T04:08:27;13.80;67.40
20066;DHT22;10193;48.884;9.182;2023-03-31T04:10:53;13.80;66.50
20066;DHT22;10193;48.884;9.182;2023-03-31T04:13:20;13.80;66.40
20066;DHT22;10193;48.884;9.182;2023-03-31T04:15:47;13.70;66.20
20066;DHT22;10193;48.884;9.182;2023-03-31T04:18:13;13.70;66.20
20066;DHT22;10193;48.884;9.182;2023-03-31T04:20:47;13.60;66.00
20066;DHT22;10193;48.884;9.182;2023-03-31T04:23:20;13.60;66.10
20066;DHT22;10193;48.884;9.182;2023-03-31T04:25:49;13.60;66.30
20066;DHT22;10193;48.884;9.182;2023-03-31T04:28:17;13.50;66.20
20066;DHT22;10193;48.884;9.182;2023-03-31T04:30:44;13.50;66.50
20066;DHT22;10193;48.884;9.182;2023-03-31T04:33:11;13.50;66.70
20066;DHT22;10193;48.884;9.182;2023-03-31T04:35:40;13.40;66.60
20066;DHT22;10193;48.884;9.182;2023-03-31T04:38:14;13.40;66.80
20066;DHT22;10193;48.884;9.182;2023-03-31T04:40:43;13.40;67.00
20066;DHT22;10193;48.884;9.182;2023-03-31T04:43:12;13.40;67.10
20066;DHT22;10193;48.884;9.182;2023-03-31T04:45:39;13.40;67.20
20066;DHT22;10193;48.884;9.182;2023-03-31T04:48:05;13.40;67.20
20066;DHT22;10193;48.884;9.182;2023-03-31T04:50:32;13.40;67.30
20066;DHT22;10193;48.884;9.182;2023-03-31T04:52:59;13.40;67.40
20066;DHT22;10193;48.884;9.182;2023-03-31T04:55:26;13.40;67.40
20066;DHT22;10193;48.884;9.182;2023-03-31T04:57:53;13.40;67.50
20066;DHT22;10193;48.884;9.182;2023-03-31T05:00:21;13.40;67.60
20066;DHT22;10193;48.884;9.182;2023-03-31T05:02:48;13.40;67.60
20066;DHT22;10193;48.884;9.182;2023-03-31T05:05:16;13.40;67.70
20066;DHT22;10193;48.884;9.182;2023-03-31T05:07:43;13.40;67.80
20066;DHT22;10193;48.884;9.182;2023-03-31T05:10:10;13.40;67.80
20066;DHT22;10193;48.884;9.182;2023-03-31T05:12:37;13.40;68.00
20066;DHT22;10193;48.884;9.182;2023-03-31T05:15:05;13.50;68.90
20066;DHT22;10193;48.884;9.182;2023-03-31T05:17:34;13.40;68.00
20066;DHT22;10193;48.884;9.182;2023-03-31T05:20:03;13.50;68.20
20066;DHT22;10193;48.884;9.182;2023-03-31T05:22:33;13.50;68.30
20066;DHT22;10193;48.884;9.182;2023-03-31T05:25:00;13.50;68.30
20066;DHT22;10193;48.884;9.182;2023-03-31T05:27:27;13.50;68.30
20066;DHT22;10193;48.884;9.182;2023-03-31T05:29:53;13.50;68.40
20066;DHT22;10193;48.884;9.182;2023-03-31T05:32:20;13.50;68.40
20066;DHT22;10193;48.884;9.182;2023-03-31T05:34:48;13.50;68.50
20066;DHT22;10193;48.884;9.182;2023-03-31T05:37:16;13.50;68.60
20066;DHT22;10193;48.884;9.182;2023-03-31T05:39:43;13.50;68.60
20066;DHT22;10193;48.884;9.182;2023-03-31T05:42:10;13.50;68.80
20066;DHT22;10193;48.884;9.182;2023-03-31T05:44:37;13.50;68.80
20066;DHT22;10193;48.884;9.182;2023-03-31T05:47:04;13.50;68.90
20066;DHT22;10193;48.884;9.182;2023-03-31T05:49:30;13.50;69.00
20066;DHT22;10193;48.884;9.182;2023-03-31T05:51:59;13.50;69.20
20066;DHT22;10193;48.884;9.182;2023-03-31T05:54:26;13.50;69.20
20066;DHT22;10193;48.884;9.182;2023-03-31T05:56:53;13.40;69.00
20066;DHT22;10193;48.884;9.182;2023-03-31T05:59:19;13.40;69.20
20066;DHT22;10193;48.884;9.182;2023-03-31T06:01:46;13.40;69.20
20066;DHT22;10193;48.884;9.182;2023-03-31T06:04:13;13.40;69.30
20066;DHT22;10193;48.884;9.182;2023-03-31T06:06:40;13.30;69.30
20066;DHT22;10193;48.884;9.182;2023-03-31T06:09:09;13.30;69.40
20066;DHT22;10193;48.884;9.182;2023-03-31T06:11:36;13.20;69.40
20066;DHT22;10193;48.884;9.182;2023-03-31T06:14:03;13.20;69.50
20066;DHT22;10193;48.884;9.182;2023-03-31T06:16:30;13.20;69.70
20066;DHT22;10193;48.884;9.182;2023-03-31T06:18:57;13.10;69.80
20066;DHT22;10193;48.884;9.182;2023-03-31T06:21:23;13.10;70.00
20066;DHT22;10193;48.884;9.182;2023-03-31T06:23:50;13.10;70.10
20066;DHT22;10193;48.884;9.182;2023-03-31T06:26:21;13.10;70.40
20066;DHT22;10193;48.884;9.182;2023-03-31T06:28:48;13.00;70.40
20066;DHT22;10193;48.884;9.182;2023-03-31T06:31:17;13.00;70.50
20066;DHT22;10193;48.884;9.182;2023-03-31T06:33:44;13.00;70.60
20066;DHT22;10193;48.884;9.182;2023-03-31T06:36:13;13.00;70.70
20066;DHT22;10193;48.884;9.182;2023-03-31T06:38:40;13.00;70.90
20066;DHT22;10193;48.884;9.182;2023-03-31T06:41:08;12.90;70.90
20066;DHT22;10193;48.884;9.182;2023-03-31T06:43:38;12.90;71.10
20066;DHT22;10193;48.884;9.182;2023-03-31T06:46:05;12.90;71.00
20066;DHT22;10193;48.884;9.182;2023-03-31T06:48:32;12.90;71.10
20066;DHT22;10193;48.884;9.182;2023-03-31T06:51:00;12.90;71.20
20066;DHT22;10193;48.884;9.182;2023-03-31T06:53:27;12.90;71.40
20066;DHT22;10193;48.884;9.182;2023-03-31T06:55:54;12.90;71.60
20066;DHT22;10193;48.884;9.182;2023-03-31T06:58:20;12.80;71.50
20066;DHT22;10193;48.884;9.182;2023-03-31T07:00:48;12.90;71.70
20066;DHT22;10193;48.884;9.182;2023-03-31T07:03:15;12.90;71.80
20066;DHT22;10193;48.884;9.182;2023-03-31T07:05:47;12.90;71.90
20066;DHT22;10193;48.884;9.182;2023-03-31T07:08:15;12.90;72.10
20066;DHT22;10193;48.884;9.182;2023-03-31T07:10:42;12.80;71.90
20066;DHT22;10193;48.884;9.182;2023-03-31T07:13:11;12.90;72.10
20066;DHT22;10193;48.884;9.182;2023-03-31T07:15:38;12.80;72.20
20066;DHT22;10193;48.884;9.182;2023-03-31T07:18:07;12.80;72.20
20066;DHT22;10193;48.884;9.182;2023-03-31T07:20:34;12.80;72.30
20066;DHT22;10193;48.884;9.182;2023-03-31T07:23:03;12.80;72.40
20066;DHT22;10193;48.884;9.182;2023-03-31T07:25:31;12.80;72.50
20066;DHT22;10193;48.884;9.182;2023-03-31T07:27:57;12.90;72.70
20066;DHT22;10193;48.884;9.182;2023-03-31T07:30:24;12.80;72.70
20066;DHT22;10193;48.884;9.182;2023-03-31T07:32:51;12.90;73.00
20066;DHT22;10193;48.884;9.182;2023-03-31T07:35:20;12.90;73.30
20066;DHT22;10193;48.884;9.182;2023-03-31T07:37:48;12.90;73.40
20066;DHT22;10193;48.884;9.182;2023-03-31T07:40:17;13.00;73.70
20066;DHT22;10193;48.884;9.182;2023-03-31T07:42:44;13.00;73.70
20066;DHT22;10193;48.884;9.182;2023-03-31T07:45:14;13.10;73.80
20066;DHT22;10193;48.884;9.182;2023-03-31T07:47:41;13.10;73.50
20066;DHT22;10193;48.884;9.182;2023-03-31T07:50:09;13.10;73.30
20066;DHT22;10193;48.884;9.182;2023-03-31T07:52:40;13.20;73.70
20066;DHT22;10193;48.884;9.182;2023-03-31T07:55:07;13.30;74.50
20066;DHT22;10193;48.884;9.182;2023-03-31T07:57:34;13.40;74.80
20066;DHT22;10193;48.884;9.182;2023-03-31T08:00:02;13.50;74.60
20066;DHT22;10193;48.884;9.182;2023-03-31T08:02:32;13.70;74.30
20066;DHT22;10193;48.884;9.182;2023-03-31T08:04:59;13.80;74.20
20066;DHT22;10193;48.884;9.182;2023-03-31T08:07:26;13.80;74.00
20066;DHT22;10193;48.884;9.182;2023-03-31T08:09:56;14.00;74.00
20066;DHT22;10193;48.884;9.182;2023-03-31T08:12:23;14.00;73.90
20066;DHT22;10193;48.884;9.182;2023-03-31T08:14:50;14.20;74.00
20066;DHT22;10193;48.884;9.182;2023-03-31T08:17:17;14.30;74.20
20066;DHT22;10193;48.884;9.182;2023-03-31T08:19:44;14.40;74.20
20066;DHT22;10193;48.884;9.182;2023-03-31T08:22:10;14.50;74.20
20066;DHT22;10193;48.884;9.182;2023-03-31T08:24:37;14.70;73.90
20066;DHT22;10193;48.884;9.182;2023-03-31T08:27:05;14.80;73.80
20066;DHT22;10193;48.884;9.182;2023-03-31T08:29:31;14.90;73.60
20066;DHT22;10193;48.884;9.182;2023-03-31T08:31:58;15.00;73.60
20066;DHT22;10193;48.884;9.182;2023-03-31T08:34:25;15.10;73.50
20066;DHT22;10193;48.884;9.182;2023-03-31T08:36:52;15.20;73.40
20066;DHT22;10193;48.884;9.182;2023-03-31T08:39:19;15.30;73.40
20066;DHT22;10193;48.884;9.182;2023-03-31T08:41:53;15.50;73.30
20066;DHT22;10193;48.884;9.182;2023-03-31T08:44:27;15.50;72.90
20066;DHT22;10193;48.884;9.182;2023-03-31T08:46:56;15.60;72.70
20066;DHT22;10193;48.884;9.182;2023-03-31T08:49:25;15.70;72.60
20066;DHT22;10193;48.884;9.182;2023-03-31T08:51:56;15.80;72.50
20066;DHT22;10193;48.884;9.182;2023-03-31T08:54:30;15.90;72.40
20066;DHT22;10193;48.884;9.182;2023-03-31T08:56:59;15.90;72.00
20066;DHT22;10193;48.884;9.182;2023-03-31T08:59:29;16.00;72.20
20066;DHT22;10193;48.884;9.182;2023-03-31T09:02:03;16.00;71.80
20066;DHT22;10193;48.884;9.182;2023-03-31T09:04:47;16.10;71.80
20066;DHT22;10193;48.884;9.182;2023-03-31T09:07:22;16.20;71.50
20066;DHT22;10193;48.884;9.182;2023-03-31T09:09:58;16.30;72.00
20066;DHT22;10193;48.884;9.182;2023-03-31T09:12:33;16.30;72.50
20066;DHT22;10193;48.884;9.182;2023-03-31T09:15:03;16.40;71.50
20066;DHT22;10193;48.884;9.182;2023-03-31T09:17:33;16.50;71.00
20066;DHT22;10193;48.884;9.182;2023-03-31T09:20:06;16.60;71.00
20066;DHT22;10193;48.884;9.182;2023-03-31T09:22:42;16.60;71.00
20066;DHT22;10193;48.884;9.182;2023-03-31T09:25:12;16.80;71.30
20066;DHT22;10193;48.884;9.182;2023-03-31T09:27:42;16.80;71.70
20066;DHT22;10193;48.884;9.182;2023-03-31T09:30:15;17.00;71.60
20066;DHT22;10193;48.884;9.182;2023-03-31T09:32:42;17.00;71.20
20066;DHT22;10193;48.884;9.182;2023-03-31T09:35:16;17.20;70.90
20066;DHT22;10193;48.884;9.182;2023-03-31T09:37:43;17.40;70.40
20066;DHT22;10193;48.884;9.182;2023-03-31T09:40:15;17.40;70.00
20066;DHT22;10193;48.884;9.182;2023-03-31T09:42:43;17.40;68.70
20066;DHT22;10193;48.884;9.182;2023-03-31T09:45:15;17.50;68.40
20066;DHT22;10193;48.884;9.182;2023-03-31T09:47:44;17.50;67.50
20066;DHT22;10193;48.884;9.182;2023-03-31T09:50:14;17.50;67.60
20066;DHT22;10193;48.884;9.182;2023-03-31T09:52:45;17.50;67.40
20066;DHT22;10193;48.884;9.182;2023-03-31T09:55:20;17.60;67.60
20066;DHT22;10193;48.884;9.182;2023-03-31T09:57:47;17.60;66.90
20066;DHT22;10193;48.884;9.182;2023-03-31T10:00:18;17.70;67.40
20066;DHT22;10193;48.884;9.182;2023-03-31T10:02:48;17.70;66.90
20066;DHT22;10193;48.884;9.182;2023-03-31T10:05:26;17.80;66.30
20066;DHT22;10193;48.884;9.182;2023-03-31T10:08:19;17.90;66.20
20066;DHT22;10193;48.884;9.182;2023-03-31T10:10:48;18.00;65.50
20066;DHT22;10193;48.884;9.182;2023-03-31T10:13:18;18.10;67.10
20066;DHT22;10193;48.884;9.182;2023-03-31T10:15:46;18.20;67.00
20066;DHT22;10193;48.884;9.182;2023-03-31T10:18:19;18.30;66.70
20066;DHT22;10193;48.884;9.182;2023-03-31T10:20:49;18.40;66.80
20066;DHT22;10193;48.884;9.182;2023-03-31T10:23:17;18.50;65.70
20066;DHT22;10193;48.884;9.182;2023-03-31T10:25:49;18.60;65.30
20066;DHT22;10193;48.884;9.182;2023-03-31T10:28:18;18.70;65.00
20066;DHT22;10193;48.884;9.182;2023-03-31T10:30:49;18.70;64.00
20066;DHT22;10193;48.884;9.182;2023-03-31T10:33:18;18.70;63.00
20066;DHT22;10193;48.884;9.182;2023-03-31T10:35:47;18.70;63.50
20066;DHT22;10193;48.884;9.182;2023-03-31T10:38:18;18.70;63.40
20066;DHT22;10193;48.884;9.182;2023-03-31T10:40:49;18.70;63.30
20066;DHT22;10193;48.884;9.182;2023-03-31T10:43:18;18.60;63.00
20066;DHT22;10193;48.884;9.182;2023-03-31T10:45:49;18.70;63.10
20066;DHT22;10193;48.884;9.182;2023-03-31T10:48:20;18.60;62.40
20066;DHT22;10193;48.884;9.182;2023-03-31T10:50:49;18.60;63.60
20066;DHT22;10193;48.884;9.182;2023-03-31T10:53:16;18.60;63.50
20066;DHT22;10193;48.884;9.182;2023-03-31T10:55:56;18.50;63.00
20066;DHT22;10193;48.884;9.182;2023-03-31T10:58:37;18.50;62.30
20066;DHT22;10193;48.884;9.182;2023-03-31T11:01:14;18.50;62.10
20066;DHT22;10193;48.884;9.182;2023-03-31T11:03:57;18.50;61.40
20066;DHT22;10193;48.884;9.182;2023-03-31T11:06:31;18.40;61.80
20066;DHT22;10193;48.884;9.182;2023-03-31T11:09:12;18.50;62.30
20066;DHT22;10193;48.884;9.182;2023-03-31T11:11:55;18.40;61.20
20066;DHT22;10193;48.884;9.182;2023-03-31T11:14:32;18.40;60.10
20066;DHT22;10193;48.884;9.182;2023-03-31T11:17:08;18.40;61.10
20066;DHT22;10193;48.884;9.182;2023-03-31T11:19:46;18.30;58.90
20066;DHT22;10193;48.884;9.182;2023-03-31T11:22:22;18.10;57.50
20066;DHT22;10193;48.884;9.182;2023-03-31T11:25:28;17.70;57.40
20066;DHT22;10193;48.884;9.182;2023-03-31T11:28:10;17.30;57.30
20066;DHT22;10193;48.884;9.182;2023-03-31T11:30:46;16.80;57.20
20066;DHT22;10193;48.884;9.182;2023-03-31T11:33:31;16.30;57.40
20066;DHT22;10193;48.884;9.182;2023-03-31T11:36:11;15.80;57.90
20066;DHT22;10193;48.884;9.182;2023-03-31T11:38:50;15.40;58.40
20066;DHT22;10193;48.884;9.182;2023-03-31T11:41:28;14.90;59.20
20066;DHT22;10193;48.884;9.182;2023-03-31T11:44:01;14.60;60.00
20066;DHT22;10193;48.884;9.182;2023-03-31T11:46:35;14.30;60.70
20066;DHT22;10193;48.884;9.182;2023-03-31T11:49:09;14.10;61.50
20066;DHT22;10193;48.884;9.182;2023-03-31T11:51:42;13.90;62.40
20066;DHT22;10193;48.884;9.182;2023-03-31T11:54:16;13.80;63.30
20066;DHT22;10193;48.884;9.182;2023-03-31T11:56:44;13.80;64.00
20066;DHT22;10193;48.884;9.182;2023-03-31T11:59:14;13.80;64.60
20066;DHT22;10193;48.884;9.182;2023-03-31T12:01:43;13.80;65.20
20066;DHT22;10193;48.884;9.182;2023-03-31T12:04:25;13.90;65.70
20066;DHT22;10193;48.884;9.182;2023-03-31T12:06:57;13.90;65.60
20066;DHT22;10193;48.884;9.182;2023-03-31T12:09:30;14.00;65.80
20066;DHT22;10193;48.884;9.182;2023-03-31T12:12:03;14.10;65.70
20066;DHT22;10193;48.884;9.182;2023-03-31T12:14:34;14.10;65.40
20066;DHT22;10193;48.884;9.182;2023-03-31T12:17:07;14.20;65.70
20066;DHT22;10193;48.884;9.182;2023-03-31T12:19:44;14.20;65.90
20066;DHT22;10193;48.884;9.182;2023-03-31T12:22:15;14.30;66.20
20066;DHT22;10193;48.884;9.182;2023-03-31T12:24:43;14.40;66.50
20066;DHT22;10193;48.884;9.182;2023-03-31T12:27:14;14.50;66.90
20066;DHT22;10193;48.884;9.182;2023-03-31T12:29:45;14.60;67.20
20066;DHT22;10193;48.884;9.182;2023-03-31T12:32:15;14.80;67.80
20066;DHT22;10193;48.884;9.182;2023-03-31T12:34:47;14.80;67.50
20066;DHT22;10193;48.884;9.182;2023-03-31T12:37:31;15.00;67.50
20066;DHT22;10193;48.884;9.182;2023-03-31T12:40:08;15.10;67.30
20066;DHT22;10193;48.884;9.182;2023-03-31T12:42:57;15.30;67.70
20066;DHT22;10193;48.884;9.182;2023-03-31T12:45:27;15.40;66.90
20066;DHT22;10193;48.884;9.182;2023-03-31T12:48:33;15.50;67.50
20066;DHT22;10193;48.884;9.182;2023-03-31T12:51:15;15.70;66.10
20066;DHT22;10193;48.884;9.182;2023-03-31T12:53:57;15.80;67.00
20066;DHT22;10193;48.884;9.182;2023-03-31T12:56:26;15.90;67.10
20066;DHT22;10193;48.884;9.182;2023-03-31T12:58:53;16.10;67.60
20066;DHT22;10193;48.884;9.182;2023-03-31T13:01:21;16.30;68.10
20066;DHT22;10193;48.884;9.182;2023-03-31T13:03:50;16.40;68.00
20066;DHT22;10193;48.884;9.182;2023-03-31T13:06:49;16.50;68.00
20066;DHT22;10193;48.884;9.182;2023-03-31T13:09:38;16.70;66.90
20066;DHT22;10193;48.884;9.182;2023-03-31T13:12:07;16.90;65.90
20066;DHT22;10193;48.884;9.182;2023-03-31T13:14:36;17.10;65.10
20066;DHT22;10193;48.884;9.182;2023-03-31T13:17:12;17.10;64.50
20066;DHT22;10193;48.884;9.182;2023-03-31T13:19:41;17.20;63.50
20066;DHT22;10193;48.884;9.182;2023-03-31T13:22:31;17.20;62.60
20066;DHT22;10193;48.884;9.182;2023-03-31T13:28:31;16.90;60.30
20066;DHT22;10193;48.884;9.182;2023-03-31T13:30:59;16.70;60.20
20066;DHT22;10193;48.884;9.182;2023-03-31T13:33:32;16.50;60.90
20066;DHT22;10193;48.884;9.182;2023-03-31T13:36:18;16.40;61.00
20066;DHT22;10193;48.884;9.182;2023-03-31T13:39:02;16.20;61.20
20066;DHT22;10193;48.884;9.182;2023-03-31T13:41:39;16.10;61.90
20066;DHT22;10193;48.884;9.182;2023-03-31T13:44:32;16.10;62.70
20066;DHT22;10193;48.884;9.182;2023-03-31T13:50:33;16.00;62.60
20066;DHT22;10193;48.884;9.182;2023-03-31T13:53:10;16.00;62.40
20066;DHT22;10193;48.884;9.182;2023-03-31T13:56:04;16.00;63.00
20066;DHT22;10193;48.884;9.182;2023-03-31T13:58:53;16.00;60.90
20066;DHT22;10193;48.884;9.182;2023-03-31T14:02:03;16.00;61.10
20066;DHT22;10193;48.884;9.182;2023-03-31T14:05:01;15.90;61.10
20066;DHT22;10193;48.884;9.182;2023-03-31T14:07:33;15.90;60.70
20066;DHT22;10193;48.884;9.182;2023-03-31T14:10:02;15.90;61.90
20066;DHT22;10193;48.884;9.182;2023-03-31T14:12:34;15.90;61.90
20066;DHT22;10193;48.884;9.182;2023-03-31T14:15:02;15.80;62.00
20066;DHT22;10193;48.884;9.182;2023-03-31T14:17:32;15.80;62.20
20066;DHT22;10193;48.884;9.182;2023-03-31T14:20:21;15.80;62.20
20066;DHT22;10193;48.884;9.182;2023-03-31T14:22:58;15.80;61.10
20066;DHT22;10193;48.884;9.182;2023-03-31T14:25:36;15.80;62.20
20066;DHT22;10193;48.884;9.182;2023-03-31T14:28:17;15.80;62.70
20066;DHT22;10193;48.884;9.182;2023-03-31T14:30:53;15.90;62.80
20066;DHT22;10193;48.884;9.182;2023-03-31T14:33:35;15.90;62.90
20066;DHT22;10193;48.884;9.182;2023-03-31T14:36:09;16.00;63.00
20066;DHT22;10193;48.884;9.182;2023-03-31T14:38:38;16.10;63.40
20066;DHT22;10193;48.884;9.182;2023-03-31T14:41:05;16.10;63.30
20066;DHT22;10193;48.884;9.182;2023-03-31T14:43:35;16.20;63.20
20066;DHT22;10193;48.884;9.182;2023-03-31T14:46:06;16.30;63.20
20066;DHT22;10193;48.884;9.182;2023-03-31T14:48:43;16.30;63.30
20066;DHT22;10193;48.884;9.182;2023-03-31T14:51:14;16.40;63.00
20066;DHT22;10193;48.884;9.182;2023-03-31T14:53:41;16.40;62.80
20066;DHT22;10193;48.884;9.182;2023-03-31T14:56:11;16.50;62.90
20066;DHT22;10193;48.884;9.182;2023-03-31T14:58:42;16.50;62.50
20066;DHT22;10193;48.884;9.182;2023-03-31T15:01:14;16.50;62.50
20066;DHT22;10193;48.884;9.182;2023-03-31T15:03:43;16.60;62.40
20066;DHT22;10193;48.884;9.182;2023-03-31T15:06:11;16.60;62.60
20066;DHT22;10193;48.884;9.182;2023-03-31T15:08:38;16.70;62.60
20066;DHT22;10193;48.884;9.182;2023-03-31T15:11:09;16.70;62.20
20066;DHT22;10193;48.884;9.182;2023-03-31T15:13:41;16.70;62.00
20066;DHT22;10193;48.884;9.182;2023-03-31T15:16:26;16.70;61.70
20066;DHT22;10193;48.884;9.182;2023-03-31T15:18:53;16.70;60.80
20066;DHT22;10193;48.884;9.182;2023-03-31T15:21:23;16.70;61.50
20066;DHT22;10193;48.884;9.182;2023-03-31T15:23:51;16.70;61.60
20066;DHT22;10193;48.884;9.182;2023-03-31T15:26:19;16.70;61.60
20066;DHT22;10193;48.884;9.182;2023-03-31T15:28:51;16.70;61.70
20066;DHT22;10193;48.884;9.182;2023-03-31T15:31:19;16.70;61.80
20066;DHT22;10193;48.884;9.182;2023-03-31T15:33:46;16.70;61.90
20066;DHT22;10193;48.884;9.182;2023-03-31T15:36:13;16.70;61.60
20066;DHT22;10193;48.884;9.182;2023-03-31T15:38:40;16.70;61.70
20066;DHT22;10193;48.884;9.182;2023-03-31T15:41:11;16.70;61.70
20066;DHT22;10193;48.884;9.182;2023-03-31T15:43:44;16.70;61.50
20066;DHT22;10193;48.884;9.182;2023-03-31T15:46:18;16.70;61.30
20066;DHT22;10193;48.884;9.182;2023-03-31T15:48:50;16.60;61.30
20066;DHT22;10193;48.884;9.182;2023-03-31T15:51:19;16.70;61.40
20066;DHT22;10193;48.884;9.182;2023-03-31T15:53:50;16.60;61.40
20066;DHT22;10193;48.884;9.182;2023-03-31T15:56:27;16.70;61.40
20066;DHT22;10193;48.884;9.182;2023-03-31T15:58:56;16.60;60.70
20066;DHT22;10193;48.884;9.182;2023-03-31T16:01:27;16.60;61.10
20066;DHT22;10193;48.884;9.182;2023-03-31T16:03:57;16.60;60.90
20066;DHT22;10193;48.884;9.182;2023-03-31T16:06:32;16.60;61.00
20066;DHT22;10193;48.884;9.182;2023-03-31T16:09:02;16.50;60.50
20066;DHT22;10193;48.884;9.182;2023-03-31T16:11:35;16.50;60.70